Time;durP1;ratioP1;P1;durP2;ratioP2;P2;SDS_P1;SDS_P2;PMS_P1;PMS_P2;Temp;Humidity;BMP_temperature;BMP_pressure;BME280_temperature;BME280_humidity;BME280_pressure;Samples;Min_cycle;Max_cycle;Signal;HPM_P1;HPM_P2
2022/11/29 00:01:41;;;;;;;79.15;26.63;;;;;;;;;;5011103;28;20544;-64
2022/11/29 00:04:07;;;;;;;73.28;25.35;;;;;;;;;;5015166;28;20638;-64
2022/11/29 00:06:33;;;;;;;80.00;28.10;;;;;;;;;;5019914;28;20645;-64
2022/11/29 00:09:02;;;;;;;80.32;27.50;;;;;;;;;;5015304;28;20174;-65
2022/11/29 00:14:17;;;;;;;86.10;27.00;;;;;;;;;;5018215;28;20193;-65
2022/11/29 00:16:42;;;;;;;82.32;26.38;;;;;;;;;;5020705;28;20696;-65
2022/11/29 00:19:09;;;;;;;76.63;25.85;;;;;;;;;;5016969;28;20206;-64
2022/11/29 00:21:35;;;;;;;78.35;25.25;;;;;;;;;;5020499;28;20189;-64
2022/11/29 00:24:00;;;;;;;84.47;25.25;;;;;;;;;;5026193;28;20615;-65
2022/11/29 00:26:26;;;;;;;92.63;26.17;;;;;;;;;;5023999;28;20205;-64
2022/11/29 00:28:52;;;;;;;87.72;25.60;;;;;;;;;;5020013;28;20182;-64
2022/11/29 00:31:19;;;;;;;88.22;24.83;;;;;;;;;;5026469;28;20193;-64
2022/11/29 00:33:45;;;;;;;77.15;25.00;;;;;;;;;;5022491;28;20279;-64
2022/11/29 00:36:11;;;;;;;91.53;26.20;;;;;;;;;;5026833;28;20185;-64
2022/11/29 00:38:37;;;;;;;86.80;24.83;;;;;;;;;;5021556;28;20767;-64
2022/11/29 00:41:03;;;;;;;78.25;25.08;;;;;;;;;;5020922;28;20205;-64
2022/11/29 00:43:28;;;;;;;92.50;25.77;;;;;;;;;;5021719;28;20198;-64
2022/11/29 00:45:53;;;;;;;85.85;25.98;;;;;;;;;;5029439;28;20684;-64
2022/11/29 00:48:19;;;;;;;93.78;25.20;;;;;;;;;;5034716;28;20193;-65
2022/11/29 00:50:44;;;;;;;92.47;24.85;;;;;;;;;;5028668;28;20197;-65
2022/11/29 00:53:09;;;;;;;91.03;24.23;;;;;;;;;;5027640;28;20225;-65
2022/11/29 00:55:35;;;;;;;82.63;25.13;;;;;;;;;;5027684;28;20194;-64
2022/11/29 00:58:00;;;;;;;91.13;25.58;;;;;;;;;;5020978;28;20622;-64
2022/11/29 01:00:26;;;;;;;86.93;25.35;;;;;;;;;;5030110;28;20865;-64
2022/11/29 01:02:51;;;;;;;89.43;25.42;;;;;;;;;;5027131;28;20572;-64
2022/11/29 01:05:16;;;;;;;85.47;24.30;;;;;;;;;;5024757;28;20190;-64
2022/11/29 01:07:42;;;;;;;78.72;23.55;;;;;;;;;;5031203;28;20602;-64
2022/11/29 01:10:08;;;;;;;106.15;24.77;;;;;;;;;;5027744;28;20667;-65
2022/11/29 01:12:38;;;;;;;99.53;24.88;;;;;;;;;;5024379;28;20205;-65
2022/11/29 01:15:05;;;;;;;120.05;25.42;;;;;;;;;;5015846;28;20209;-65
2022/11/29 01:17:30;;;;;;;130.73;25.75;;;;;;;;;;5021442;28;20194;-64
2022/11/29 01:19:55;;;;;;;121.28;25.60;;;;;;;;;;5038143;28;20220;-65
2022/11/29 01:22:21;;;;;;;118.00;26.13;;;;;;;;;;5027653;28;20185;-65
2022/11/29 01:24:46;;;;;;;114.10;25.48;;;;;;;;;;5031489;28;20190;-64
2022/11/29 01:27:11;;;;;;;82.03;22.80;;;;;;;;;;5032601;28;20192;-64
2022/11/29 01:29:38;;;;;;;70.13;22.38;;;;;;;;;;5025360;28;20552;-65
2022/11/29 01:32:03;;;;;;;76.07;22.00;;;;;;;;;;5037761;28;20190;-65
2022/11/29 01:34:29;;;;;;;67.70;21.92;;;;;;;;;;5026989;28;20182;-65
2022/11/29 01:36:54;;;;;;;92.80;23.88;;;;;;;;;;5026687;28;20181;-64
2022/11/29 01:39:19;;;;;;;83.43;23.05;;;;;;;;;;5029318;28;20541;-65
2022/11/29 01:41:45;;;;;;;75.95;22.45;;;;;;;;;;5026537;28;20205;-65
2022/11/29 01:44:10;;;;;;;88.20;22.45;;;;;;;;;;5021061;28;20326;-66
2022/11/29 01:46:38;;;;;;;99.90;23.63;;;;;;;;;;5023190;28;20263;-65
2022/11/29 01:49:10;;;;;;;70.30;21.20;;;;;;;;;;5016244;28;20253;-65
2022/11/29 01:51:37;;;;;;;146.07;24.90;;;;;;;;;;5040470;28;20282;-65
2022/11/29 01:54:04;;;;;;;59.80;21.73;;;;;;;;;;5024683;28;20190;-65
2022/11/29 01:56:32;;;;;;;98.85;24.50;;;;;;;;;;5028699;28;20269;-65
2022/11/29 01:59:01;;;;;;;81.47;22.45;;;;;;;;;;5027644;28;20202;-64
2022/11/29 02:01:27;;;;;;;94.93;26.05;;;;;;;;;;5028102;28;20716;-64
2022/11/29 02:03:52;;;;;;;122.82;26.08;;;;;;;;;;5026516;28;20571;-65
2022/11/29 02:06:18;;;;;;;126.10;25.23;;;;;;;;;;5027701;28;20269;-64
2022/11/29 02:08:43;;;;;;;114.78;26.60;;;;;;;;;;5028478;28;20222;-64
2022/11/29 02:11:17;;;;;;;137.52;28.52;;;;;;;;;;5034194;28;20188;-64
2022/11/29 02:14:03;;;;;;;118.22;26.23;;;;;;;;;;5027872;28;20683;-64
2022/11/29 02:16:31;;;;;;;147.45;27.77;;;;;;;;;;5026468;28;20625;-64
2022/11/29 02:19:32;;;;;;;125.93;28.75;;;;;;;;;;5018636;28;20211;-64
2022/11/29 02:22:09;;;;;;;182.07;30.60;;;;;;;;;;5027433;28;20189;-64
2022/11/29 02:24:50;;;;;;;192.95;33.03;;;;;;;;;;5021583;28;20186;-65
2022/11/29 02:27:44;;;;;;;189.25;31.98;;;;;;;;;;5023239;28;20248;-65
2022/11/29 02:30:38;;;;;;;178.77;30.20;;;;;;;;;;5026790;28;20274;-64
2022/11/29 02:33:22;;;;;;;166.93;31.55;;;;;;;;;;5027070;28;20685;-63
2022/11/29 02:36:01;;;;;;;170.98;31.30;;;;;;;;;;5026068;28;20196;-64
2022/11/29 02:39:08;;;;;;;160.45;29.10;;;;;;;;;;5028423;28;20205;-64
2022/11/29 02:41:39;;;;;;;172.98;28.15;;;;;;;;;;5025263;28;20181;-64
2022/11/29 02:44:34;;;;;;;164.60;27.33;;;;;;;;;;5026723;28;20638;-64
2022/11/29 02:47:04;;;;;;;135.75;27.38;;;;;;;;;;5028859;28;20214;-64
2022/11/29 02:50:04;;;;;;;147.88;25.90;;;;;;;;;;5032480;28;20183;-64
2022/11/29 02:53:05;;;;;;;129.93;25.33;;;;;;;;;;5025804;28;20181;-64
2022/11/29 02:55:55;;;;;;;151.95;26.48;;;;;;;;;;4982363;28;20548;-64
2022/11/29 02:58:48;;;;;;;200.40;27.23;;;;;;;;;;5027239;28;20206;-64
2022/11/29 03:01:17;;;;;;;158.68;26.33;;;;;;;;;;5026382;28;20222;-64
2022/11/29 03:03:51;;;;;;;154.57;24.73;;;;;;;;;;5023922;28;20551;-64
2022/11/29 03:06:38;;;;;;;174.32;24.67;;;;;;;;;;5019087;28;20260;-64
2022/11/29 03:09:51;;;;;;;138.05;22.88;;;;;;;;;;5019597;28;20538;-64
2022/11/29 03:12:32;;;;;;;104.90;20.35;;;;;;;;;;4966784;28;20270;-64
2022/11/29 03:15:06;;;;;;;121.15;22.60;;;;;;;;;;5021832;28;20220;-64
2022/11/29 03:18:04;;;;;;;145.90;24.13;;;;;;;;;;5027524;28;20434;-64
2022/11/29 03:20:43;;;;;;;138.23;22.63;;;;;;;;;;4980093;28;20283;-64
2022/11/29 03:23:23;;;;;;;112.90;20.17;;;;;;;;;;5024834;28;20515;-64
2022/11/29 03:25:58;;;;;;;131.15;22.40;;;;;;;;;;5027774;28;20592;-64
2022/11/29 03:28:39;;;;;;;127.75;20.77;;;;;;;;;;5023694;28;20201;-64
2022/11/29 03:31:14;;;;;;;141.90;23.02;;;;;;;;;;5024303;28;20198;-64
2022/11/29 03:33:57;;;;;;;116.75;20.13;;;;;;;;;;5026298;28;20189;-64
2022/11/29 03:36:48;;;;;;;109.68;20.05;;;;;;;;;;5024728;28;20178;-64
2022/11/29 03:39:30;;;;;;;99.15;19.88;;;;;;;;;;5027458;28;20206;-64
2022/11/29 03:42:01;;;;;;;99.22;19.15;;;;;;;;;;5020033;28;20283;-64
2022/11/29 03:44:33;;;;;;;104.05;19.75;;;;;;;;;;5025005;28;20186;-64
2022/11/29 03:47:13;;;;;;;115.15;19.55;;;;;;;;;;5028533;28;20214;-64
2022/11/29 03:49:57;;;;;;;97.33;19.63;;;;;;;;;;5031376;28;20423;-64
2022/11/29 03:52:50;;;;;;;76.23;18.47;;;;;;;;;;5025403;28;20204;-64
2022/11/29 03:55:47;;;;;;;87.85;19.52;;;;;;;;;;5020405;28;20214;-64
2022/11/29 03:58:54;;;;;;;103.57;20.05;;;;;;;;;;5022859;28;20248;-64
2022/11/29 04:01:59;;;;;;;103.83;19.77;;;;;;;;;;5016463;28;20321;-64
2022/11/29 04:05:10;;;;;;;141.57;20.67;;;;;;;;;;5012793;28;20270;-64
2022/11/29 04:08:19;;;;;;;123.95;20.98;;;;;;;;;;5003421;28;20194;-64
2022/11/29 04:11:21;;;;;;;124.25;21.42;;;;;;;;;;5015023;28;20599;-64
2022/11/29 04:13:56;;;;;;;106.68;20.67;;;;;;;;;;5012912;28;20205;-64
2022/11/29 04:16:27;;;;;;;107.45;19.80;;;;;;;;;;5013660;28;20277;-64
2022/11/29 04:19:10;;;;;;;123.53;20.92;;;;;;;;;;5011754;28;20264;-63
2022/11/29 04:22:15;;;;;;;128.97;22.13;;;;;;;;;;5017726;28;20197;-63
2022/11/29 04:24:55;;;;;;;106.30;21.73;;;;;;;;;;5021133;28;20594;-64
2022/11/29 04:27:58;;;;;;;109.97;20.17;;;;;;;;;;5015720;28;20214;-63
2022/11/29 04:30:24;;;;;;;101.97;20.17;;;;;;;;;;5012636;28;20507;-63
2022/11/29 04:33:29;;;;;;;152.43;23.50;;;;;;;;;;5016259;28;20186;-63
2022/11/29 04:36:34;;;;;;;181.75;24.67;;;;;;;;;;5018050;28;20760;-64
2022/11/29 04:39:15;;;;;;;172.07;22.88;;;;;;;;;;5017150;28;20917;-64
2022/11/29 04:42:21;;;;;;;169.25;24.27;;;;;;;;;;5025652;28;20182;-64
2022/11/29 04:45:12;;;;;;;117.53;19.80;;;;;;;;;;5017491;28;20964;-64
2022/11/29 04:47:47;;;;;;;113.88;20.83;;;;;;;;;;5027997;28;20588;-64
2022/11/29 04:50:30;;;;;;;120.47;21.67;;;;;;;;;;5017352;28;20255;-64
2022/11/29 04:53:46;;;;;;;120.17;20.67;;;;;;;;;;5025840;28;20189;-64
2022/11/29 04:56:35;;;;;;;122.87;21.03;;;;;;;;;;4949830;28;20259;-64
2022/11/29 04:59:10;;;;;;;119.10;21.67;;;;;;;;;;5029144;28;20202;-64
2022/11/29 05:01:49;;;;;;;127.05;20.27;;;;;;;;;;5026852;28;20231;-64
2022/11/29 05:04:28;;;;;;;99.03;19.95;;;;;;;;;;5029718;28;20233;-65
2022/11/29 05:07:26;;;;;;;87.90;18.43;;;;;;;;;;5025118;28;20569;-64
2022/11/29 05:10:19;;;;;;;103.67;19.17;;;;;;;;;;5025429;28;20205;-64
2022/11/29 05:12:50;;;;;;;105.97;17.98;;;;;;;;;;5011688;28;20210;-64
2022/11/29 05:15:15;;;;;;;121.10;19.30;;;;;;;;;;5033017;28;20271;-64
2022/11/29 05:17:49;;;;;;;115.05;19.90;;;;;;;;;;5026420;28;20704;-64
2022/11/29 05:20:39;;;;;;;130.35;20.55;;;;;;;;;;5022750;28;20194;-64
2022/11/29 05:23:39;;;;;;;134.33;21.20;;;;;;;;;;5025911;28;20189;-64
2022/11/29 05:26:21;;;;;;;137.85;21.33;;;;;;;;;;5025652;28;20730;-64
2022/11/29 05:29:08;;;;;;;127.93;21.48;;;;;;;;;;5023868;28;20663;-64
2022/11/29 05:31:52;;;;;;;157.55;21.38;;;;;;;;;;5029418;28;20232;-64
2022/11/29 05:34:29;;;;;;;282.50;25.33;;;;;;;;;;5027490;28;20201;-64
2022/11/29 05:37:14;;;;;;;185.20;23.83;;;;;;;;;;5023754;28;20711;-63
2022/11/29 05:40:05;;;;;;;215.10;24.08;;;;;;;;;;5016792;28;20405;-65
2022/11/29 05:43:02;;;;;;;173.50;22.50;;;;;;;;;;5017254;28;20636;-65
2022/11/29 05:45:43;;;;;;;130.88;19.30;;;;;;;;;;5028879;28;20629;-63
2022/11/29 05:48:11;;;;;;;149.27;20.10;;;;;;;;;;5016189;28;20201;-63
2022/11/29 05:50:41;;;;;;;127.17;20.90;;;;;;;;;;5023359;28;20980;-63
2022/11/29 05:53:16;;;;;;;143.52;20.02;;;;;;;;;;5025212;28;20190;-63
2022/11/29 05:56:03;;;;;;;145.07;19.43;;;;;;;;;;5029350;28;20208;-65
2022/11/29 05:58:42;;;;;;;111.63;18.07;;;;;;;;;;5027882;28;20229;-63
2022/11/29 06:01:35;;;;;;;114.82;21.20;;;;;;;;;;5021891;28;20261;-64
2022/11/29 06:04:23;;;;;;;147.80;20.30;;;;;;;;;;5024647;28;20270;-63
2022/11/29 06:07:06;;;;;;;149.80;20.53;;;;;;;;;;5019928;28;20277;-66
2022/11/29 06:09:46;;;;;;;151.43;22.93;;;;;;;;;;5021792;28;20467;-64
2022/11/29 06:12:17;;;;;;;169.47;20.50;;;;;;;;;;5013240;28;20214;-63
2022/11/29 06:15:16;;;;;;;135.07;19.52;;;;;;;;;;5023036;28;20261;-63
2022/11/29 06:17:47;;;;;;;183.57;24.07;;;;;;;;;;5023969;28;20178;-63
2022/11/29 06:20:25;;;;;;;110.00;18.43;;;;;;;;;;5049654;28;20193;-63
2022/11/29 06:23:40;;;;;;;143.07;20.30;;;;;;;;;;5035823;28;20248;-63
2022/11/29 06:26:11;;;;;;;159.17;20.63;;;;;;;;;;5035290;28;20178;-63
2022/11/29 06:28:49;;;;;;;168.88;21.58;;;;;;;;;;5016820;28;20710;-63
2022/11/29 06:31:26;;;;;;;133.15;19.27;;;;;;;;;;5033635;28;20229;-63
2022/11/29 06:34:25;;;;;;;133.97;17.93;;;;;;;;;;5031154;28;20185;-63
2022/11/29 06:36:58;;;;;;;131.93;17.97;;;;;;;;;;5023826;28;20186;-63
2022/11/29 06:39:24;;;;;;;110.50;18.03;;;;;;;;;;5029071;28;20202;-63
2022/11/29 06:41:49;;;;;;;117.13;16.20;;;;;;;;;;5028750;28;20182;-63
2022/11/29 06:44:14;;;;;;;109.47;17.07;;;;;;;;;;5020630;28;20560;-63
2022/11/29 06:46:54;;;;;;;106.07;16.23;;;;;;;;;;5023170;28;20557;-63
2022/11/29 06:49:51;;;;;;;138.00;17.47;;;;;;;;;;5029287;28;20221;-63
2022/11/29 06:52:29;;;;;;;149.47;16.77;;;;;;;;;;5006335;28;20193;-64
2022/11/29 06:55:18;;;;;;;168.97;18.03;;;;;;;;;;5015199;28;20186;-64
2022/11/29 06:58:05;;;;;;;167.13;17.70;;;;;;;;;;5010446;28;20552;-63
2022/11/29 07:00:49;;;;;;;92.03;16.60;;;;;;;;;;5008294;28;20649;-64
2022/11/29 07:03:48;;;;;;;141.77;17.53;;;;;;;;;;5011308;28;20183;-64
2022/11/29 07:06:22;;;;;;;157.40;17.47;;;;;;;;;;5009799;28;20194;-63
2022/11/29 07:08:54;;;;;;;130.07;17.67;;;;;;;;;;5011765;28;20177;-63
2022/11/29 07:11:20;;;;;;;92.37;16.23;;;;;;;;;;5012356;28;20187;-63
2022/11/29 07:13:46;;;;;;;160.77;19.33;;;;;;;;;;5008244;28;20198;-64
2022/11/29 07:16:29;;;;;;;150.73;19.53;;;;;;;;;;5013715;28;20189;-64
2022/11/29 07:19:07;;;;;;;166.70;19.17;;;;;;;;;;5011958;28;20199;-64
2022/11/29 07:21:54;;;;;;;143.43;18.63;;;;;;;;;;5012603;28;20285;-63
2022/11/29 07:24:44;;;;;;;222.73;23.10;;;;;;;;;;5015215;28;20637;-65
2022/11/29 07:27:18;;;;;;;230.93;21.47;;;;;;;;;;5010905;28;20642;-65
2022/11/29 07:29:43;;;;;;;120.50;17.97;;;;;;;;;;5011450;28;20218;-63
2022/11/29 07:32:21;;;;;;;200.23;21.53;;;;;;;;;;5012975;28;20226;-63
2022/11/29 07:35:00;;;;;;;148.50;20.23;;;;;;;;;;5009165;28;20244;-63
2022/11/29 07:38:06;;;;;;;194.40;22.60;;;;;;;;;;5013313;28;20186;-64
2022/11/29 07:40:57;;;;;;;154.83;19.73;;;;;;;;;;5012624;28;20387;-63
2022/11/29 07:43:25;;;;;;;175.07;22.23;;;;;;;;;;5014108;28;20649;-64
2022/11/29 07:45:53;;;;;;;157.63;20.27;;;;;;;;;;5014694;28;20277;-64
2022/11/29 07:48:19;;;;;;;115.57;17.70;;;;;;;;;;5015578;28;20190;-63
2022/11/29 07:50:44;;;;;;;144.10;20.70;;;;;;;;;;5017842;28;20194;-65
2022/11/29 07:53:15;;;;;;;192.70;20.97;;;;;;;;;;5015408;28;20183;-64
2022/11/29 07:55:41;;;;;;;136.67;19.43;;;;;;;;;;5018267;28;20194;-63
2022/11/29 07:58:12;;;;;;;134.83;19.93;;;;;;;;;;5029734;28;20217;-63
2022/11/29 08:00:39;;;;;;;148.23;20.97;;;;;;;;;;5025996;28;20237;-63
2022/11/29 08:03:04;;;;;;;205.67;24.10;;;;;;;;;;5024553;28;20190;-63
2022/11/29 08:05:30;;;;;;;152.63;25.80;;;;;;;;;;5025830;28;20204;-63
2022/11/29 08:07:55;;;;;;;124.40;19.37;;;;;;;;;;5024437;28;20186;-64
2022/11/29 08:10:21;;;;;;;189.27;22.00;;;;;;;;;;5025819;28;20182;-65
2022/11/29 08:12:49;;;;;;;175.33;23.10;;;;;;;;;;5026044;28;20196;-64
2022/11/29 08:15:15;;;;;;;164.17;21.77;;;;;;;;;;5025449;28;20333;-64
2022/11/29 08:17:40;;;;;;;239.20;24.93;;;;;;;;;;5020463;28;20270;-64
2022/11/29 08:20:06;;;;;;;116.47;20.77;;;;;;;;;;5040723;28;20633;-64
2022/11/29 08:22:32;;;;;;;141.07;24.27;;;;;;;;;;5020868;28;20686;-64
2022/11/29 08:24:58;;;;;;;154.20;26.33;;;;;;;;;;5019645;28;20177;-64
2022/11/29 08:27:24;;;;;;;173.10;24.20;;;;;;;;;;5021704;28;20178;-64
2022/11/29 08:29:49;;;;;;;248.40;28.70;;;;;;;;;;5028361;28;20332;-64
2022/11/29 08:32:16;;;;;;;175.80;23.00;;;;;;;;;;5041707;28;20184;-64
2022/11/29 08:34:41;;;;;;;140.27;22.47;;;;;;;;;;5027725;28;20186;-64
2022/11/29 08:37:07;;;;;;;211.07;22.87;;;;;;;;;;5026379;28;20390;-64
2022/11/29 08:39:32;;;;;;;223.47;23.43;;;;;;;;;;5029016;28;20190;-64
2022/11/29 08:41:57;;;;;;;210.45;22.77;;;;;;;;;;5025270;28;20189;-64
2022/11/29 08:44:22;;;;;;;288.13;25.03;;;;;;;;;;5025997;28;20189;-64
2022/11/29 08:49:32;;;;;;;164.93;20.77;;;;;;;;;;5021527;28;20189;-64
2022/11/29 08:54:41;;;;;;;182.93;20.73;;;;;;;;;;5018311;28;20202;-64
2022/11/29 08:57:07;;;;;;;195.93;21.47;;;;;;;;;;5022847;28;20190;-64
2022/11/29 08:59:33;;;;;;;208.98;21.00;;;;;;;;;;5023850;28;20338;-63
2022/11/29 09:01:58;;;;;;;191.13;22.80;;;;;;;;;;5017154;28;20194;-63
2022/11/29 09:04:24;;;;;;;232.30;23.83;;;;;;;;;;5019171;28;20391;-63
2022/11/29 09:06:49;;;;;;;186.67;22.10;;;;;;;;;;5024954;28;20194;-63
2022/11/29 09:09:15;;;;;;;123.95;18.10;;;;;;;;;;5029674;28;20171;-65
2022/11/29 09:11:41;;;;;;;78.17;16.60;;;;;;;;;;5030183;28;20182;-63
2022/11/29 09:14:08;;;;;;;103.13;18.20;;;;;;;;;;5026717;28;20197;-63
2022/11/29 09:16:35;;;;;;;135.80;20.10;;;;;;;;;;5035149;28;20201;-63
2022/11/29 09:19:01;;;;;;;161.27;21.17;;;;;;;;;;5038453;28;20219;-63
2022/11/29 09:21:29;;;;;;;155.75;21.38;;;;;;;;;;5028268;28;20725;-65
2022/11/29 09:23:58;;;;;;;124.53;20.50;;;;;;;;;;5029152;28;20182;-66
2022/11/29 09:26:28;;;;;;;113.17;19.17;;;;;;;;;;5042880;28;20260;-63
2022/11/29 09:28:53;;;;;;;140.98;19.73;;;;;;;;;;5023657;28;20233;-65
2022/11/29 09:31:20;;;;;;;85.30;17.90;;;;;;;;;;5030900;28;20182;-63
2022/11/29 09:33:46;;;;;;;150.70;20.30;;;;;;;;;;5015578;28;20258;-65
2022/11/29 09:36:12;;;;;;;131.13;19.70;;;;;;;;;;5029997;28;20664;-65
2022/11/29 09:38:38;;;;;;;119.45;19.52;;;;;;;;;;5026467;28;20211;-64
2022/11/29 09:41:18;;;;;;;129.77;19.48;;;;;;;;;;5045360;28;20212;-64
2022/11/29 09:43:59;;;;;;;152.32;18.80;;;;;;;;;;5027362;28;20189;-64
2022/11/29 09:46:59;;;;;;;115.90;18.80;;;;;;;;;;5032585;28;20189;-63
2022/11/29 09:49:41;;;;;;;124.15;20.00;;;;;;;;;;5028973;28;20182;-64
2022/11/29 09:52:43;;;;;;;102.22;18.60;;;;;;;;;;5024048;28;20280;-63
2022/11/29 09:55:45;;;;;;;96.47;18.50;;;;;;;;;;5039232;28;20242;-63
2022/11/29 09:58:16;;;;;;;118.18;19.20;;;;;;;;;;5021363;28;20200;-63
2022/11/29 10:00:49;;;;;;;159.70;20.00;;;;;;;;;;5029582;28;20225;-63
2022/11/29 10:03:38;;;;;;;90.15;17.23;;;;;;;;;;5030444;28;20186;-64
2022/11/29 10:06:11;;;;;;;84.82;16.35;;;;;;;;;;5035021;28;20594;-64
2022/11/29 10:08:46;;;;;;;100.38;20.08;;;;;;;;;;5029852;28;20377;-64
2022/11/29 10:11:27;;;;;;;69.82;17.63;;;;;;;;;;5027380;28;20212;-64
2022/11/29 10:14:27;;;;;;;108.57;20.73;;;;;;;;;;5025128;28;20272;-65
2022/11/29 10:17:29;;;;;;;99.30;20.15;;;;;;;;;;4984274;28;20202;-64
2022/11/29 10:20:14;;;;;;;89.28;21.55;;;;;;;;;;5032320;28;20264;-64
2022/11/29 10:23:12;;;;;;;92.68;21.70;;;;;;;;;;5024254;28;20173;-64
2022/11/29 10:25:45;;;;;;;112.53;20.60;;;;;;;;;;5017246;28;20201;-64
2022/11/29 10:28:16;;;;;;;85.70;20.92;;;;;;;;;;5021537;28;20272;-65
2022/11/29 10:30:42;;;;;;;120.20;24.20;;;;;;;;;;5035039;28;20204;-64
2022/11/29 10:33:19;;;;;;;103.90;21.73;;;;;;;;;;5028313;28;20212;-64
2022/11/29 10:35:47;;;;;;;81.05;18.88;;;;;;;;;;5029208;28;20758;-64
2022/11/29 10:38:14;;;;;;;81.10;18.70;;;;;;;;;;5025598;28;20269;-64
2022/11/29 10:40:44;;;;;;;92.45;19.42;;;;;;;;;;5040674;28;20204;-66
2022/11/29 10:43:10;;;;;;;59.05;16.88;;;;;;;;;;5027693;28;20546;-64
2022/11/29 10:45:49;;;;;;;61.92;16.98;;;;;;;;;;5033104;28;20190;-64
2022/11/29 10:48:20;;;;;;;68.35;18.17;;;;;;;;;;5021138;28;20306;-64
2022/11/29 10:50:48;;;;;;;88.57;21.45;;;;;;;;;;5028380;28;20617;-64
2022/11/29 10:53:21;;;;;;;85.95;20.67;;;;;;;;;;5026496;28;20657;-64
2022/11/29 10:56:17;;;;;;;70.50;18.00;;;;;;;;;;5028568;28;20550;-64
2022/11/29 10:59:04;;;;;;;59.95;16.88;;;;;;;;;;5014936;28;20195;-64
2022/11/29 11:01:32;;;;;;;56.30;17.00;;;;;;;;;;5012216;28;20225;-64
2022/11/29 11:03:59;;;;;;;59.93;17.23;;;;;;;;;;5025585;28;20177;-64
2022/11/29 11:06:40;;;;;;;56.22;17.10;;;;;;;;;;5033569;28;20253;-64
2022/11/29 11:09:11;;;;;;;63.35;18.17;;;;;;;;;;5025383;28;20170;-64
2022/11/29 11:11:38;;;;;;;63.58;17.58;;;;;;;;;;5026355;28;20663;-64
2022/11/29 11:14:17;;;;;;;60.03;17.38;;;;;;;;;;5022641;28;20265;-64
2022/11/29 11:16:42;;;;;;;50.55;16.52;;;;;;;;;;5025088;28;20186;-64
2022/11/29 11:19:30;;;;;;;55.28;16.60;;;;;;;;;;5036634;28;20197;-64
2022/11/29 11:22:01;;;;;;;53.83;17.52;;;;;;;;;;5025899;28;20549;-64
2022/11/29 11:24:30;;;;;;;55.72;18.75;;;;;;;;;;5024557;28;20178;-64
2022/11/29 11:26:55;;;;;;;45.13;16.58;;;;;;;;;;5027551;28;20186;-64
2022/11/29 11:29:34;;;;;;;53.70;17.17;;;;;;;;;;5025056;28;20205;-64
2022/11/29 11:32:00;;;;;;;46.13;16.85;;;;;;;;;;5035883;28;20250;-63
2022/11/29 11:34:34;;;;;;;49.00;17.52;;;;;;;;;;5033627;28;20273;-64
2022/11/29 11:37:14;;;;;;;47.38;16.38;;;;;;;;;;5035339;28;20186;-64
2022/11/29 11:39:41;;;;;;;43.65;15.32;;;;;;;;;;5027447;28;20202;-64
2022/11/29 11:42:37;;;;;;;43.58;15.80;;;;;;;;;;5027977;28;20240;-64
2022/11/29 11:45:33;;;;;;;38.30;14.88;;;;;;;;;;5034713;28;20185;-64
2022/11/29 11:48:04;;;;;;;42.08;16.95;;;;;;;;;;5015503;28;20179;-63
2022/11/29 11:50:41;;;;;;;48.53;20.10;;;;;;;;;;5018359;28;20637;-64
2022/11/29 11:53:19;;;;;;;43.05;16.20;;;;;;;;;;5025871;28;20178;-64
2022/11/29 11:56:00;;;;;;;46.22;16.23;;;;;;;;;;5025923;28;20295;-64
2022/11/29 11:58:43;;;;;;;40.15;15.57;;;;;;;;;;5026128;28;20198;-64
2022/11/29 12:01:11;;;;;;;43.22;16.08;;;;;;;;;;5029570;28;20244;-63
2022/11/29 12:03:58;;;;;;;39.95;15.68;;;;;;;;;;5027530;28;20536;-63
2022/11/29 12:06:45;;;;;;;44.72;15.90;;;;;;;;;;5022890;28;20305;-63
2022/11/29 12:09:18;;;;;;;36.20;15.30;;;;;;;;;;5022418;28;20258;-64
2022/11/29 12:11:55;;;;;;;35.10;13.93;;;;;;;;;;5027208;28;20189;-63
2022/11/29 12:14:35;;;;;;;58.47;26.20;;;;;;;;;;5027585;28;20190;-63
2022/11/29 12:17:08;;;;;;;48.78;20.60;;;;;;;;;;5028923;28;20181;-63
2022/11/29 12:19:42;;;;;;;48.20;17.90;;;;;;;;;;5021015;28;20198;-63
2022/11/29 12:22:14;;;;;;;39.95;16.75;;;;;;;;;;5016997;28;20182;-64
2022/11/29 12:24:50;;;;;;;38.97;16.83;;;;;;;;;;5013104;28;20524;-64
2022/11/29 12:27:15;;;;;;;39.15;16.90;;;;;;;;;;5010361;28;20569;-64
2022/11/29 12:29:41;;;;;;;38.92;15.02;;;;;;;;;;5011551;28;20194;-64
2022/11/29 12:32:28;;;;;;;46.95;15.95;;;;;;;;;;5010048;28;20195;-64
2022/11/29 12:35:05;;;;;;;41.28;15.30;;;;;;;;;;5008992;28;20194;-64
2022/11/29 12:37:52;;;;;;;44.00;16.38;;;;;;;;;;5011932;28;20333;-64
2022/11/29 12:40:41;;;;;;;41.28;15.07;;;;;;;;;;5015135;28;20201;-63
2022/11/29 12:43:10;;;;;;;40.35;15.85;;;;;;;;;;5015457;28;20696;-63
2022/11/29 12:45:41;;;;;;;44.00;15.00;;;;;;;;;;5014167;28;20198;-63
2022/11/29 12:48:34;;;;;;;43.75;15.38;;;;;;;;;;5021302;28;20195;-63
2022/11/29 12:51:26;;;;;;;43.35;16.10;;;;;;;;;;5015626;28;20569;-64
2022/11/29 12:54:14;;;;;;;43.88;16.40;;;;;;;;;;5014365;28;20179;-64
2022/11/29 12:56:46;;;;;;;42.15;15.65;;;;;;;;;;5013098;28;20200;-64
2022/11/29 12:59:24;;;;;;;42.35;14.73;;;;;;;;;;5018639;28;20677;-64
2022/11/29 13:02:23;;;;;;;44.80;15.30;;;;;;;;;;5015800;28;20657;-64
2022/11/29 13:04:57;;;;;;;33.58;13.80;;;;;;;;;;5009086;28;20205;-63
2022/11/29 13:07:50;;;;;;;39.53;15.02;;;;;;;;;;5014982;28;20213;-63
2022/11/29 13:10:26;;;;;;;35.33;14.80;;;;;;;;;;5013684;28;20707;-63
2022/11/29 13:12:56;;;;;;;48.38;15.43;;;;;;;;;;5013718;28;20181;-63
2022/11/29 13:15:33;;;;;;;36.83;14.32;;;;;;;;;;5013144;28;20235;-64
2022/11/29 13:18:01;;;;;;;43.13;15.85;;;;;;;;;;5016112;28;20173;-64
2022/11/29 13:20:40;;;;;;;46.78;15.45;;;;;;;;;;5020567;28;20674;-64
2022/11/29 13:23:29;;;;;;;38.03;14.55;;;;;;;;;;5038541;28;20186;-64
2022/11/29 13:25:57;;;;;;;40.08;14.68;;;;;;;;;;5025412;28;20178;-64
2022/11/29 13:28:27;;;;;;;37.13;13.10;;;;;;;;;;5029600;28;20662;-64
2022/11/29 13:31:04;;;;;;;37.34;14.84;;;;;;;;;;4544725;28;10002834;-64
2022/11/29 13:33:32;;;;;;;31.88;13.52;;;;;;;;;;5017640;28;20689;-64
2022/11/29 13:36:20;;;;;;;33.58;13.23;;;;;;;;;;5029282;28;20194;-64
2022/11/29 13:39:10;;;;;;;37.50;14.45;;;;;;;;;;5021712;28;20289;-64
2022/11/29 13:41:47;;;;;;;33.60;13.90;;;;;;;;;;5012798;28;20326;-64
2022/11/29 13:44:21;;;;;;;35.83;14.60;;;;;;;;;;5025736;28;20659;-64
2022/11/29 13:47:02;;;;;;;37.60;13.68;;;;;;;;;;5023863;28;20189;-64
2022/11/29 13:49:52;;;;;;;36.95;14.45;;;;;;;;;;5030161;28;20192;-64
2022/11/29 13:52:46;;;;;;;33.30;13.38;;;;;;;;;;5025904;28;20178;-64
2022/11/29 13:55:13;;;;;;;37.38;14.18;;;;;;;;;;5020906;28;20225;-64
2022/11/29 13:58:00;;;;;;;29.23;12.65;;;;;;;;;;5027060;28;20175;-64
2022/11/29 14:00:30;;;;;;;32.22;12.15;;;;;;;;;;5025865;28;20344;-64
2022/11/29 14:02:57;;;;;;;29.23;11.43;;;;;;;;;;5033089;28;20194;-63
2022/11/29 14:05:24;;;;;;;34.20;10.60;;;;;;;;;;5032950;28;20228;-63
2022/11/29 14:08:29;;;;;;;31.95;10.43;;;;;;;;;;5027937;28;21036;-63
2022/11/29 14:10:59;;;;;;;25.52;9.68;;;;;;;;;;5023784;28;20189;-63
2022/11/29 14:13:36;;;;;;;29.45;10.40;;;;;;;;;;5016890;28;20266;-63
2022/11/29 14:16:04;;;;;;;32.60;11.02;;;;;;;;;;5016774;28;20555;-63
2022/11/29 14:19:18;;;;;;;30.67;10.55;;;;;;;;;;5027589;28;20199;-63
2022/11/29 14:22:04;;;;;;;31.58;11.02;;;;;;;;;;5014351;28;20285;-63
2022/11/29 14:24:34;;;;;;;31.45;10.73;;;;;;;;;;5025244;28;20218;-64
2022/11/29 14:27:05;;;;;;;27.25;10.40;;;;;;;;;;5026918;28;20616;-63
2022/11/29 14:29:49;;;;;;;25.92;10.30;;;;;;;;;;5022047;28;20578;-63
2022/11/29 14:32:25;;;;;;;27.08;10.82;;;;;;;;;;5025898;28;20186;-63
2022/11/29 14:35:17;;;;;;;30.83;12.18;;;;;;;;;;5017032;28;20182;-63
2022/11/29 14:38:02;;;;;;;31.27;11.27;;;;;;;;;;5035223;28;20201;-64
2022/11/29 14:40:42;;;;;;;31.65;11.70;;;;;;;;;;5010440;28;20206;-63
2022/11/29 14:43:29;;;;;;;27.77;11.30;;;;;;;;;;5018210;28;20354;-63
2022/11/29 14:46:13;;;;;;;28.25;11.57;;;;;;;;;;5032913;28;20185;-63
2022/11/29 14:48:43;;;;;;;34.00;11.05;;;;;;;;;;5019778;28;20634;-63
2022/11/29 14:51:14;;;;;;;27.55;11.35;;;;;;;;;;5022253;28;20241;-63
2022/11/29 14:53:41;;;;;;;26.27;11.30;;;;;;;;;;5024906;28;20205;-63
2022/11/29 14:56:29;;;;;;;40.03;12.63;;;;;;;;;;5015156;28;20194;-63
2022/11/29 14:59:32;;;;;;;34.30;11.65;;;;;;;;;;5021120;28;20208;-63
2022/11/29 15:02:16;;;;;;;31.33;11.45;;;;;;;;;;5019908;28;20217;-63
2022/11/29 15:04:42;;;;;;;28.77;11.52;;;;;;;;;;5025704;28;20593;-64
2022/11/29 15:07:15;;;;;;;34.83;12.32;;;;;;;;;;5027486;28;20257;-63
2022/11/29 15:09:42;;;;;;;28.80;11.98;;;;;;;;;;5021217;28;20568;-64
2022/11/29 15:12:30;;;;;;;29.20;11.77;;;;;;;;;;5023765;28;20722;-64
2022/11/29 15:15:12;;;;;;;27.58;11.13;;;;;;;;;;5001406;28;20221;-63
2022/11/29 15:17:54;;;;;;;33.22;12.50;;;;;;;;;;5024690;28;20681;-63